Portada
METAR-TAF:

METAR-TAF

Aeroports :

Vineyard Haven, Massachusetts, Estats Units d'Amèrica

latitud: 41-23-32N, longitud: 070-37-00W, altitud: 20 m

Observació

L'informe es va fer fa 18 minuts, a les 22:53 UTC
Vent 16 kt del Oest/Nord-Oest amb ràfegues de 24 kt
Temperatura 7°C
Humitat 76%
Pressió 1004 hPa
Visibilitat: 16.1 km
Núvols disperses a una alçada de 8000 ft
Núvols disperses a una alçada de 12000 ft

METAR: KMVY 222253Z AUTO 29016G24KT 10SM SCT080 SCT120 07/03 A2965 RMK AO2 PK WND 30029/2242 RAE20 SLP040 P0001 T00720028

Hora: 18:11 (23:11 UTC)


TAF: manca

Observacions i pronòstics meteorològics de més de 4000 aeroports (METAR i TAF).

Les estacions disponibles són els punts grocs i vermells al mapa.

Posi el ratolí al punt desitjat per veure el nom de l'estació.

Feu clic per veure les observacions i els pronòstics meteorològics.

Per canviar el mapa: feu clic els botons verds amb una creu de color negre per apropar; al botó verd amb un guió per allunyar la imatge; o en les fletxes verdes per a mapes adjacents.


METAR-TAF: